Time;durP1;ratioP1;P1;durP2;ratioP2;P2;SDS_P1;SDS_P2;PMS_P1;PMS_P2;Temp;Humidity;BMP_temperature;BMP_pressure;BME280_temperature;BME280_humidity;BME280_pressure;Samples;Min_cycle;Max_cycle;Signal;HPM_P1;HPM_P2
2022/01/06 00:00:01;;;;;;;;;;;;;;;2.87;100.00;97774.92;1659766;86;20466;-66
2022/01/06 00:02:29;;;;;;;;;;;;;;;2.88;100.00;97776.52;1650910;86;20157;-69
2022/01/06 00:04:55;;;;;;;;;;;;;;;2.85;100.00;97787.08;1647567;86;20128;-71
2022/01/06 00:07:22;;;;;;;;;;;;;;;2.86;100.00;97790.53;1641902;86;20136;-68
2022/01/06 00:09:50;;;;;;;;;;;;;;;2.84;100.00;97786.78;1640078;87;21256;-68
2022/01/06 00:12:19;;;;;;;;;;;;;;;2.83;100.00;97787.84;1647599;86;20126;-68
2022/01/06 00:17:38;;;;;;;;;;;;;;;2.79;100.00;97787.55;1613149;86;20181;-69
2022/01/06 00:25:22;;;;;;;;;;;;;;;2.76;100.00;97792.53;1667275;86;20101;-68
2022/01/06 00:27:48;;;;;;;;;;;;;;;2.74;100.00;97798.09;1656147;86;20202;-69
2022/01/06 00:30:15;;;;;;;;;;;;;;;2.71;100.00;97806.51;1655909;86;20563;-69
2022/01/06 00:32:42;;;;;;;;;;;;;;;2.70;100.00;97812.86;1626672;86;20182;-68
2022/01/06 00:35:09;;;;;;;;;;;;;;;2.69;100.00;97809.92;1667600;86;21245;-69
2022/01/06 00:37:36;;;;;;;;;;;;;;;2.68;100.00;97812.30;1647828;86;20103;-70
2022/01/06 00:40:04;;;;;;;;;;;;;;;2.67;100.00;97808.56;1622924;86;20140;-69
2022/01/06 00:42:31;;;;;;;;;;;;;;;2.63;100.00;97804.30;1655501;86;20164;-68
2022/01/06 00:44:57;;;;;;;;;;;;;;;2.59;100.00;97799.20;1650142;86;20164;-69
2022/01/06 00:47:24;;;;;;;;;;;;;;;2.57;100.00;97801.28;1655054;86;21149;-70
2022/01/06 00:49:50;;;;;;;;;;;;;;;2.54;100.00;97788.00;1667093;86;20467;-69
2022/01/06 00:52:16;;;;;;;;;;;;;;;2.54;100.00;97791.19;1660104;86;20098;-69
2022/01/06 00:54:43;;;;;;;;;;;;;;;2.54;100.00;97793.83;1665786;86;20587;-69
2022/01/06 00:57:10;;;;;;;;;;;;;;;2.54;100.00;97790.66;1645120;86;20128;-69
2022/01/06 00:59:36;;;;;;;;;;;;;;;2.56;100.00;97787.24;1667717;86;21207;-69
2022/01/06 01:02:03;;;;;;;;;;;;;;;2.58;100.00;97783.83;1636295;86;20089;-68
2022/01/06 01:04:29;;;;;;;;;;;;;;;2.60;100.00;97780.12;1649545;86;20153;-68
2022/01/06 01:06:56;;;;;;;;;;;;;;;2.62;100.00;97788.13;1648415;86;20163;-69
2022/01/06 01:09:23;;;;;;;;;;;;;;;2.64;100.00;97791.31;1662998;86;20105;-68
2022/01/06 01:11:50;;;;;;;;;;;;;;;2.64;100.00;97793.96;1655070;86;21245;-69
2022/01/06 01:14:25;;;;;;;;;;;;;;;2.66;100.00;97795.05;1640588;87;20128;-68
2022/01/06 01:16:54;;;;;;;;;;;;;;;2.67;100.00;97789.52;1656364;86;20150;-68
2022/01/06 01:19:16;;;;;;;;;;;;;;;2.69;100.00;97782.63;1652041;86;20483;-69
2022/01/06 01:21:42;;;;;;;;;;;;;;;2.70;100.00;97782.93;1661274;86;20445;-68
2022/01/06 01:24:12;;;;;;;;;;;;;;;2.69;100.00;97767.53;1661287;86;21080;-69
2022/01/06 01:26:38;;;;;;;;;;;;;;;2.70;100.00;97771.01;1648730;86;20101;-66
2022/01/06 01:29:09;;;;;;;;;;;;;;;2.69;100.00;97774.69;1665577;86;20126;-70
2022/01/06 01:31:42;;;;;;;;;;;;;;;2.67;100.00;97761.70;1649767;86;20118;-68
2022/01/06 01:34:09;;;;;;;;;;;;;;;2.68;100.00;97762.50;1666719;86;20138;-69
2022/01/06 01:36:32;;;;;;;;;;;;;;;2.68;100.00;97753.23;1646602;86;21180;-67
2022/01/06 01:38:58;;;;;;;;;;;;;;;2.67;100.00;97749.78;1666462;86;20093;-70
2022/01/06 01:41:25;;;;;;;;;;;;;;;2.67;100.00;97757.73;1667678;86;20188;-69
2022/01/06 01:43:53;;;;;;;;;;;;;;;2.71;100.00;97763.32;1666948;86;20448;-68
2022/01/06 01:46:29;;;;;;;;;;;;;;;2.71;100.00;97768.63;1642471;86;20448;-68
2022/01/06 01:49:15;;;;;;;;;;;;;;;2.67;100.00;97765.67;1641675;86;21196;-69
2022/01/06 01:51:20;;;;;;;;;;;;;;;2.67;100.00;97769.66;1642940;86;20108;-69
2022/01/06 01:53:46;;;;;;;;;;;;;;;2.68;100.00;97770.45;1672528;86;20126;-72
2022/01/06 01:56:13;;;;;;;;;;;;;;;2.68;100.00;97769.13;1656729;86;20092;-71
2022/01/06 01:58:40;;;;;;;;;;;;;;;2.69;100.00;97764.09;1660888;86;20097;-69
2022/01/06 02:01:07;;;;;;;;;;;;;;;2.71;100.00;97776.57;1654121;86;21191;-72
2022/01/06 02:03:33;;;;;;;;;;;;;;;2.69;100.00;97779.45;1656985;86;20090;-70
2022/01/06 02:06:00;;;;;;;;;;;;;;;2.71;100.00;97784.52;1661249;86;20119;-68
2022/01/06 02:08:26;;;;;;;;;;;;;;;2.71;100.00;97787.96;1642283;86;20127;-69
2022/01/06 02:10:56;;;;;;;;;;;;;;;2.74;100.00;97787.49;1642038;86;20179;-69
2022/01/06 02:13:28;;;;;;;;;;;;;;;2.73;100.00;97775.80;1658908;86;21164;-68
2022/01/06 02:15:52;;;;;;;;;;;;;;;2.75;100.00;97782.98;1641227;86;20131;-69
2022/01/06 02:18:18;;;;;;;;;;;;;;;2.74;100.00;97791.47;1640748;86;20120;-69
2022/01/06 02:20:44;;;;;;;;;;;;;;;2.76;100.00;97796.50;1648386;86;21999;-69
2022/01/06 02:23:12;;;;;;;;;;;;;;;2.75;100.00;97794.38;1665723;86;20113;-69
2022/01/06 02:25:39;;;;;;;;;;;;;;;2.77;100.00;97797.59;1665844;86;21111;-69
2022/01/06 02:28:05;;;;;;;;;;;;;;;2.79;100.00;97794.67;1655536;86;20248;-71
2022/01/06 02:30:34;;;;;;;;;;;;;;;2.80;100.00;97802.92;1642635;86;20087;-70
2022/01/06 02:33:04;;;;;;;;;;;;;;;2.82;100.00;97806.13;1651286;86;20124;-70
2022/01/06 02:35:32;;;;;;;;;;;;;;;2.84;100.00;97812.49;1650992;86;20132;-71
2022/01/06 02:37:58;;;;;;;;;;;;;;;2.86;100.00;97811.73;1644417;84;21180;-70
2022/01/06 02:40:26;;;;;;;;;;;;;;;2.86;100.00;97793.17;1665133;86;20439;-70
2022/01/06 02:42:57;;;;;;;;;;;;;;;2.88;100.00;97806.45;1649744;86;20101;-71
2022/01/06 02:45:27;;;;;;;;;;;;;;;2.89;100.00;97809.91;1653127;86;20161;-69
2022/01/06 02:47:57;;;;;;;;;;;;;;;2.87;100.00;97813.34;1660885;86;20201;-71
2022/01/06 02:50:25;;;;;;;;;;;;;;;2.85;100.00;97813.58;1650622;86;21216;-71
2022/01/06 02:52:51;;;;;;;;;;;;;;;2.87;100.00;97810.70;1651221;86;20105;-71
2022/01/06 02:55:17;;;;;;;;;;;;;;;2.87;100.00;97806.19;1662337;86;20089;-71
2022/01/06 02:57:45;;;;;;;;;;;;;;;2.86;100.00;97812.52;1655871;86;20173;-71
2022/01/06 03:00:14;;;;;;;;;;;;;;;2.86;100.00;97817.03;1648541;86;20115;-70
2022/01/06 03:02:43;;;;;;;;;;;;;;;2.86;100.00;97810.41;1648754;86;21125;-72
2022/01/06 03:05:10;;;;;;;;;;;;;;;2.86;100.00;97817.82;1651710;86;20129;-70
2022/01/06 03:07:37;;;;;;;;;;;;;;;2.86;100.00;97812.52;1626031;87;20148;-70
2022/01/06 03:10:08;;;;;;;;;;;;;;;2.88;100.00;97818.91;1650423;86;20120;-71
2022/01/06 03:12:39;;;;;;;;;;;;;;;2.87;100.00;97822.09;1649907;86;20449;-71
2022/01/06 03:15:02;;;;;;;;;;;;;;;2.87;100.00;97821.30;1656752;86;21237;-70
2022/01/06 03:17:29;;;;;;;;;;;;;;;2.88;100.00;97832.16;1647564;86;20119;-70
2022/01/06 03:19:56;;;;;;;;;;;;;;;2.89;100.00;97838.55;1653358;86;20110;-69
2022/01/06 03:22:22;;;;;;;;;;;;;;;2.91;100.00;97850.21;1660199;86;20089;-71
2022/01/06 03:24:50;;;;;;;;;;;;;;;2.90;100.00;97844.12;1656255;86;20109;-70
2022/01/06 03:27:16;;;;;;;;;;;;;;;2.90;100.00;97856.58;1658651;86;21551;-69
2022/01/06 03:29:43;;;;;;;;;;;;;;;2.90;100.00;97851.27;1653604;86;20437;-70
2022/01/06 03:32:10;;;;;;;;;;;;;;;2.94;100.00;97858.99;1645287;86;20181;-70
2022/01/06 03:34:37;;;;;;;;;;;;;;;2.94;100.00;97858.99;1654460;86;20539;-70
2022/01/06 03:37:06;;;;;;;;;;;;;;;2.95;100.00;97865.38;1656917;86;20140;-69
2022/01/06 03:39:33;;;;;;;;;;;;;;;2.95;100.00;97875.19;1651835;86;21193;-71
2022/01/06 03:42:00;;;;;;;;;;;;;;;2.96;100.00;97874.95;1652752;86;20113;-68
2022/01/06 03:44:26;;;;;;;;;;;;;;;2.99;100.00;97877.11;1649385;86;20156;-72
2022/01/06 03:46:55;;;;;;;;;;;;;;;3.00;100.00;97877.38;1648744;86;20117;-72
2022/01/06 03:49:21;;;;;;;;;;;;;;;2.99;100.00;97865.18;1663581;86;20101;-69
2022/01/06 03:51:48;;;;;;;;;;;;;;;3.03;100.00;97870.78;1648255;86;21180;-69
2022/01/06 03:54:14;;;;;;;;;;;;;;;3.01;100.00;97867.56;1651993;86;20132;-69
2022/01/06 03:56:40;;;;;;;;;;;;;;;3.00;100.00;97872.60;1649340;85;20446;-65
2022/01/06 03:59:07;;;;;;;;;;;;;;;2.96;100.00;97868.83;1655999;86;20106;-70
2022/01/06 04:01:34;;;;;;;;;;;;;;;3.02;100.00;97876.34;1631151;86;20106;-69
2022/01/06 04:04:02;;;;;;;;;;;;;;;2.99;100.00;97878.96;1652121;86;20463;-68
2022/01/06 04:06:28;;;;;;;;;;;;;;;2.98;100.00;97878.67;1629043;86;20114;-69
2022/01/06 04:08:55;;;;;;;;;;;;;;;2.98;100.00;97877.34;1652720;85;20106;-72
2022/01/06 04:11:22;;;;;;;;;;;;;;;2.98;100.00;97877.34;1653172;86;20126;-72
2022/01/06 04:13:49;;;;;;;;;;;;;;;2.97;100.00;97879.20;1657408;85;20082;-71
2022/01/06 04:16:17;;;;;;;;;;;;;;;2.98;100.00;97883.44;1665250;85;21243;-68
2022/01/06 04:18:44;;;;;;;;;;;;;;;2.97;100.00;97879.73;1658549;85;20090;-69
2022/01/06 04:21:11;;;;;;;;;;;;;;;2.98;100.00;97885.30;1625946;86;20162;-70
2022/01/06 04:23:37;;;;;;;;;;;;;;;2.96;100.00;97877.61;1635446;86;20109;-68
2022/01/06 04:26:03;;;;;;;;;;;;;;;2.97;100.00;97879.73;1626007;86;20121;-71
2022/01/06 04:28:30;;;;;;;;;;;;;;;2.98;100.00;97884.77;1626357;86;21818;-71
2022/01/06 04:30:57;;;;;;;;;;;;;;;2.98;100.00;97891.39;1623375;88;20161;-71
2022/01/06 04:33:23;;;;;;;;;;;;;;;2.99;100.00;97898.84;1630869;86;20094;-70
2022/01/06 04:35:50;;;;;;;;;;;;;;;2.97;100.00;97902.25;1636503;86;20150;-70
2022/01/06 04:38:16;;;;;;;;;;;;;;;2.97;100.00;97901.72;1651057;85;20130;-70
2022/01/06 04:40:42;;;;;;;;;;;;;;;2.99;100.00;97896.98;1661370;85;21116;-69
2022/01/06 04:43:09;;;;;;;;;;;;;;;2.98;100.00;97902.52;1672552;85;20163;-70
2022/01/06 04:45:35;;;;;;;;;;;;;;;2.97;100.00;97903.05;1668831;85;20141;-71
2022/01/06 04:48:04;;;;;;;;;;;;;;;2.99;100.00;97905.47;1657780;85;20496;-71
2022/01/06 04:50:32;;;;;;;;;;;;;;;3.00;100.00;97910.50;1651761;86;20106;-70
2022/01/06 04:52:58;;;;;;;;;;;;;;;3.00;100.00;97908.38;1660539;85;21625;-70
2022/01/06 04:55:25;;;;;;;;;;;;;;;2.99;100.00;97910.23;1656753;86;20249;-70
2022/01/06 04:57:52;;;;;;;;;;;;;;;3.00;100.00;97928.27;1658469;86;20142;-69
2022/01/06 05:00:19;;;;;;;;;;;;;;;2.98;100.00;97931.67;1658481;86;20446;-70
2022/01/06 05:02:45;;;;;;;;;;;;;;;2.96;100.00;97931.94;1657158;86;21042;-72
2022/01/06 05:05:14;;;;;;;;;;;;;;;2.93;100.00;97934.26;1657048;86;21191;-70
2022/01/06 05:07:41;;;;;;;;;;;;;;;2.89;100.00;97927.83;1648657;86;20102;-71
2022/01/06 05:10:10;;;;;;;;;;;;;;;2.84;100.00;97919.81;1645195;84;20152;-72
2022/01/06 05:12:41;;;;;;;;;;;;;;;2.84;100.00;97931.73;1639118;86;20114;-71
2022/01/06 05:15:09;;;;;;;;;;;;;;;2.78;100.00;97938.28;1647689;86;20117;-68
2022/01/06 05:17:35;;;;;;;;;;;;;;;2.72;100.00;97935.80;1637560;86;21790;-71
2022/01/06 05:20:03;;;;;;;;;;;;;;;2.72;100.00;97958.31;1626331;88;20204;-69
2022/01/06 05:22:32;;;;;;;;;;;;;;;2.63;100.00;97947.87;1641512;85;20101;-67
2022/01/06 05:25:03;;;;;;;;;;;;;;;2.54;100.00;97952.22;1661813;86;20129;-69
2022/01/06 05:27:31;;;;;;;;;;;;;;;2.46;100.00;97971.17;1654111;86;20147;-69
2022/01/06 05:29:58;;;;;;;;;;;;;;;2.35;100.00;97971.53;1646871;86;21180;-69
2022/01/06 05:32:24;;;;;;;;;;;;;;;2.29;100.00;97983.06;1667989;85;20430;-66
2022/01/06 05:34:52;;;;;;;;;;;;;;;2.24;100.00;97994.89;1675237;85;20079;-70
2022/01/06 05:37:18;;;;;;;;;;;;;;;2.17;100.00;98005.34;1676748;85;20155;-70
2022/01/06 05:39:45;;;;;;;;;;;;;;;2.10;100.00;98013.42;1664377;85;20207;-65
2022/01/06 05:42:13;;;;;;;;;;;;;;;1.98;100.00;98010.02;1653506;85;21893;-67
2022/01/06 05:44:46;;;;;;;;;;;;;;;1.88;100.00;98027.30;1659338;86;20145;-70
2022/01/06 05:47:13;;;;;;;;;;;;;;;1.81;100.00;98023.17;1656324;86;20122;-68
2022/01/06 05:49:40;;;;;;;;;;;;;;;1.74;100.00;98019.86;1633700;86;20482;-62
2022/01/06 05:52:10;;;;;;;;;;;;;;;1.61;100.00;98014.31;1632548;85;20518;-68
2022/01/06 05:54:38;;;;;;;;;;;;;;;1.58;100.00;98029.33;1656759;85;21161;-69
2022/01/06 05:57:08;;;;;;;;;;;;;;;1.53;100.00;98028.70;1668460;85;20546;-69
2022/01/06 05:59:36;;;;;;;;;;;;;;;1.47;100.00;98027.80;1660490;85;20145;-68
2022/01/06 06:02:05;;;;;;;;;;;;;;;1.42;100.00;98036.95;1658988;86;20114;-69
2022/01/06 06:04:33;;;;;;;;;;;;;;;1.41;100.00;98043.78;1659273;86;20150;-69
2022/01/06 06:07:00;;;;;;;;;;;;;;;1.38;100.00;98050.33;1652071;86;21188;-71
2022/01/06 06:09:28;;;;;;;;;;;;;;;1.34;100.00;98045.20;1640256;85;20159;-71
2022/01/06 06:11:55;;;;;;;;;;;;;;;1.29;100.00;98048.54;1654253;85;20110;-69
2022/01/06 06:14:23;;;;;;;;;;;;;;;1.26;100.00;98046.89;1652823;86;20189;-70
2022/01/06 06:16:52;;;;;;;;;;;;;;;1.19;100.00;98050.16;1641297;85;20152;-70
2022/01/06 06:19:18;;;;;;;;;;;;;;;1.12;100.00;98053.43;1654820;84;21144;-68
2022/01/06 06:21:45;;;;;;;;;;;;;;;1.07;100.00;98058.88;1656573;85;20130;-69
2022/01/06 06:24:11;;;;;;;;;;;;;;;1.04;100.00;98079.69;1677907;85;20150;-66
2022/01/06 06:26:37;;;;;;;;;;;;;;;0.99;100.00;98079.04;1642525;84;20534;-68
2022/01/06 06:29:04;;;;;;;;;;;;;;;0.98;100.00;98093.78;1653358;85;20138;-70
2022/01/06 06:31:30;;;;;;;;;;;;;;;0.98;100.00;98101.72;1665505;84;21153;-71
2022/01/06 06:33:58;;;;;;;;;;;;;;;0.96;100.00;98109.09;1675227;85;20141;-68
2022/01/06 06:36:25;;;;;;;;;;;;;;;0.94;100.00;98114.59;1650911;84;20758;-71
2022/01/06 06:38:51;;;;;;;;;;;;;;;0.93;100.00;98114.31;1648887;86;20518;-69
2022/01/06 06:41:18;;;;;;;;;;;;;;;0.91;100.00;98120.33;1659916;84;20119;-73
2022/01/06 06:43:45;;;;;;;;;;;;;;;0.88;100.00;98120.76;1671153;84;22050;-74
2022/01/06 06:46:13;;;;;;;;;;;;;;;0.84;100.00;98099.81;1638019;86;20218;-69
2022/01/06 06:48:39;;;;;;;;;;;;;;;0.78;100.00;98108.63;1623003;86;20457;-69
2022/01/06 06:51:05;;;;;;;;;;;;;;;0.74;100.00;98114.88;1643791;86;20227;-67
2022/01/06 06:53:32;;;;;;;;;;;;;;;0.71;100.00;98116.66;1625067;86;20213;-70
2022/01/06 06:56:02;;;;;;;;;;;;;;;0.67;100.00;98123.41;1652072;85;21179;-70
2022/01/06 06:58:29;;;;;;;;;;;;;;;0.64;100.00;98122.03;1654043;86;20526;-72
2022/01/06 07:00:55;;;;;;;;;;;;;;;0.65;100.00;98129.43;1678133;85;20528;-68
2022/01/06 07:03:22;;;;;;;;;;;;;;;0.68;100.00;98128.17;1654333;85;20257;-71
2022/01/06 07:05:48;;;;;;;;;;;;;;;0.69;100.00;98124.52;1682635;85;20155;-70
2022/01/06 07:08:14;;;;;;;;;;;;;;;0.68;100.00;98113.65;1682596;85;21722;-72
2022/01/06 07:10:40;;;;;;;;;;;;;;;0.69;100.00;98111.31;1660362;85;20093;-69
2022/01/06 07:13:08;;;;;;;;;;;;;;;0.68;100.00;98118.41;1659392;86;20479;-72
2022/01/06 07:15:41;;;;;;;;;;;;;;;0.64;100.00;98119.39;1659600;86;20180;-73
2022/01/06 07:18:03;;;;;;;;;;;;;;;0.65;100.00;98132.07;1659229;86;20150;-72
2022/01/06 07:20:29;;;;;;;;;;;;;;;0.64;100.00;98127.31;1659845;86;21851;-72
2022/01/06 07:22:56;;;;;;;;;;;;;;;0.63;100.00;98128.32;1659134;86;20160;-71
2022/01/06 07:25:22;;;;;;;;;;;;;;;0.63;100.00;98127.00;1659439;86;20516;-69
2022/01/06 07:27:49;;;;;;;;;;;;;;;0.61;100.00;98116.38;1659478;86;20776;-70
2022/01/06 07:30:16;;;;;;;;;;;;;;;0.59;100.00;98113.98;1659677;86;20179;-72
2022/01/06 07:32:45;;;;;;;;;;;;;;;0.57;100.00;98113.39;1659045;85;22256;-72
2022/01/06 07:35:14;;;;;;;;;;;;;;;0.56;100.00;98110.44;1649117;86;20130;-71
2022/01/06 07:37:41;;;;;;;;;;;;;;;0.54;100.00;98113.84;1649317;87;20444;-71
2022/01/06 07:40:08;;;;;;;;;;;;;;;0.60;100.00;98125.34;1649464;86;20543;-72
2022/01/06 07:42:35;;;;;;;;;;;;;;;0.60;100.00;98124.02;1649907;87;20275;-71
2022/01/06 07:45:03;;;;;;;;;;;;;;;0.66;100.00;98127.59;1648399;86;21138;-71
2022/01/06 07:47:36;;;;;;;;;;;;;;;0.73;100.00;98136.23;1642967;86;20307;-71
2022/01/06 07:50:03;;;;;;;;;;;;;;;0.76;100.00;98136.59;1636965;86;20490;-70
2022/01/06 07:52:30;;;;;;;;;;;;;;;0.78;100.00;98140.31;1636144;86;20204;-72
2022/01/06 07:54:56;;;;;;;;;;;;;;;0.74;100.00;98142.62;1631776;86;20152;-70
2022/01/06 07:57:22;;;;;;;;;;;;;;;0.74;100.00;98149.22;1627435;88;21155;-70
2022/01/06 07:59:51;;;;;;;;;;;;;;;0.74;100.00;98147.90;1628150;86;20152;-70
2022/01/06 08:02:18;;;;;;;;;;;;;;;0.72;100.00;98147.31;1630074;86;20128;-69
2022/01/06 08:04:44;;;;;;;;;;;;;;;0.70;100.00;98148.05;1634958;87;20173;-71
2022/01/06 08:07:12;;;;;;;;;;;;;;;0.64;100.00;98152.40;1635139;87;20191;-69
2022/01/06 08:09:45;;;;;;;;;;;;;;;0.64;100.00;98160.32;1611236;87;21185;-69
2022/01/06 08:12:10;;;;;;;;;;;;;;;0.59;100.00;98168.11;1630724;88;20195;-70
2022/01/06 08:14:38;;;;;;;;;;;;;;;0.57;100.00;98178.08;1659645;86;20157;-71
2022/01/06 08:17:05;;;;;;;;;;;;;;;0.54;100.00;98180.34;1648505;85;20459;-71
2022/01/06 08:19:31;;;;;;;;;;;;;;;0.52;100.00;98187.70;1636454;86;20108;-68
2022/01/06 08:21:58;;;;;;;;;;;;;;;0.49;100.00;98184.17;1611145;89;21539;-69
2022/01/06 08:24:24;;;;;;;;;;;;;;;0.46;100.00;98185.42;1616288;87;20160;-70
2022/01/06 08:26:51;;;;;;;;;;;;;;;0.45;100.00;98173.78;1615283;89;20494;-70
2022/01/06 08:29:17;;;;;;;;;;;;;;;0.43;100.00;98177.95;1616241;89;20121;-70
2022/01/06 08:31:44;;;;;;;;;;;;;;;0.40;100.00;98178.40;1634516;86;20118;-70
2022/01/06 08:34:11;;;;;;;;;;;;;;;0.37;100.00;98177.02;1658619;86;21139;-69
2022/01/06 08:36:37;;;;;;;;;;;;;;;0.40;100.00;98188.44;1657137;86;20215;-69
2022/01/06 08:39:05;;;;;;;;;;;;;;;0.42;100.00;98180.31;1642607;86;20148;-71
2022/01/06 08:41:31;;;;;;;;;;;;;;;0.48;100.00;98187.84;1645399;87;20116;-71
2022/01/06 08:43:58;;;;;;;;;;;;;;;0.63;100.00;98190.38;1645251;87;20222;-69
2022/01/06 08:46:24;;;;;;;;;;;;;;;0.93;100.00;98199.34;1638182;85;21545;-70
2022/01/06 08:48:51;;;;;;;;;;;;;;;1.02;100.00;98200.65;1638040;87;20160;-69
2022/01/06 08:51:20;;;;;;;;;;;;;;;1.01;100.00;98191.12;1619167;87;20217;-72
2022/01/06 08:53:46;;;;;;;;;;;;;;;0.98;100.00;98183.62;1641399;87;20156;-71
2022/01/06 08:56:12;;;;;;;;;;;;;;;0.98;100.00;98177.84;1642367;86;20479;-70
2022/01/06 08:58:40;;;;;;;;;;;;;;;1.03;100.00;98181.94;1635683;86;21094;-69
2022/01/06 09:01:06;;;;;;;;;;;;;;;1.03;100.00;98184.58;1639958;87;20169;-69
2022/01/06 09:03:34;;;;;;;;;;;;;;;1.02;100.00;98197.48;1642621;87;20231;-71
2022/01/06 09:06:00;;;;;;;;;;;;;;;1.03;100.00;98205.72;1642724;87;20161;-69
2022/01/06 09:08:26;;;;;;;;;;;;;;;0.99;100.00;98203.75;1637565;86;20185;-71
2022/01/06 09:10:53;;;;;;;;;;;;;;;0.93;100.00;98213.38;1632210;87;21191;-71
2022/01/06 09:13:20;;;;;;;;;;;;;;;0.87;100.00;98196.30;1643120;87;20098;-70
2022/01/06 09:15:47;;;;;;;;;;;;;;;0.84;100.00;98194.38;1642573;87;20152;-71
2022/01/06 09:18:14;;;;;;;;;;;;;;;0.92;100.00;98203.83;1631218;85;20484;-72
2022/01/06 09:20:43;;;;;;;;;;;;;;;1.17;100.00;98208.16;1624506;87;20518;-72
2022/01/06 09:23:10;;;;;;;;;;;;;;;1.77;100.00;98211.20;1622702;85;21158;-73
2022/01/06 09:25:36;;;;;;;;;;;;;;;2.18;100.00;98215.58;1623343;85;20190;-72
2022/01/06 09:28:03;;;;;;;;;;;;;;;2.63;100.00;98221.52;1641847;85;20115;-69
2022/01/06 09:30:29;;;;;;;;;;;;;;;3.13;100.00;98220.06;1654961;85;20184;-71
2022/01/06 09:32:57;;;;;;;;;;;;;;;2.92;100.00;98224.20;1643267;85;20110;-69
2022/01/06 09:35:25;;;;;;;;;;;;;;;3.06;100.00;98231.33;1642830;86;21184;-70
2022/01/06 09:37:51;;;;;;;;;;;;;;;2.75;100.00;98211.70;1639845;85;20146;-74
2022/01/06 09:40:17;;;;;;;;;;;;;;;2.65;100.00;98214.15;1617828;87;20146;-73
2022/01/06 09:42:44;;;;;;;;;;;;;;;2.83;100.00;98215.02;1637766;85;20169;-70
2022/01/06 09:45:11;;;;;;;;;;;;;;;2.52;100.00;98218.37;1627391;85;20229;-70
2022/01/06 09:47:38;;;;;;;;;;;;;;;2.39;100.00;98206.20;1642356;87;21197;-72
2022/01/06 09:50:06;;;;;;;;;;;;;;;2.32;100.00;98204.99;1642967;87;20184;-70
2022/01/06 09:52:36;;;;;;;;;;;;;;;2.18;100.00;98193.56;1612095;87;20225;-68
2022/01/06 09:55:04;;;;;;;;;;;;;;;2.01;100.00;98193.47;1642829;86;20196;-70
2022/01/06 09:57:32;;;;;;;;;;;;;;;2.06;100.00;98197.57;1643109;86;20157;-70
2022/01/06 09:59:59;;;;;;;;;;;;;;;2.00;100.00;98193.98;1633239;86;21558;-72
2022/01/06 10:02:34;;;;;;;;;;;;;;;2.08;100.00;98202.09;1626683;88;20219;-70
2022/01/06 10:05:01;;;;;;;;;;;;;;;2.01;100.00;98191.64;1634134;85;20161;-72
2022/01/06 10:07:27;;;;;;;;;;;;;;;2.00;100.00;98186.58;1643049;87;20109;-71
2022/01/06 10:09:59;;;;;;;;;;;;;;;1.96;100.00;98186.73;1613928;87;20431;-75
2022/01/06 10:12:25;;;;;;;;;;;;;;;1.91;100.00;98194.05;1634278;87;21145;-73
2022/01/06 10:14:52;;;;;;;;;;;;;;;1.78;100.00;98202.22;1642384;85;20120;-71
2022/01/06 10:17:33;;;;;;;;;;;;;;;1.73;100.00;98190.20;1640486;85;20195;-72
2022/01/06 10:20:11;;;;;;;;;;;;;;;1.85;100.00;98169.32;1644942;85;20159;-73
2022/01/06 10:22:52;;;;;;;;;;;;;;;2.13;100.00;98174.41;1642645;85;20455;-70
2022/01/06 10:25:19;;;;;;;;;;;;;;;2.19;100.00;98172.16;1634650;86;21221;-69
2022/01/06 10:27:46;;;;;;;;;;;;;;;2.35;100.00;98166.16;1638355;86;20564;-71
2022/01/06 10:30:13;;;;;;;;;;;;;;;2.65;100.00;98168.31;1638547;86;20128;-72
2022/01/06 10:32:40;;;;;;;;;;;;;;;2.86;100.00;98176.11;1638713;87;20488;-72
2022/01/06 10:35:09;;;;;;;;;;;;;;;2.92;100.00;98181.27;1638551;87;20186;-70
2022/01/06 10:37:41;;;;;;;;;;;;;;;3.02;100.00;98169.25;1642211;85;21170;-73
2022/01/06 10:40:10;;;;;;;;;;;;;;;3.23;100.00;98173.83;1626615;88;20565;-72
2022/01/06 10:42:38;;;;;;;;;;;;;;;3.36;100.00;98168.77;1603542;88;20207;-71
2022/01/06 10:45:17;;;;;;;;;;;;;;;3.39;100.00;98173.58;1631510;85;20219;-71
2022/01/06 10:47:45;;;;;;;;;;;;;;;3.11;100.00;98179.23;1646925;85;20497;-73
2022/01/06 10:50:24;;;;;;;;;;;;;;;2.96;100.00;98176.28;1642015;86;21132;-73
2022/01/06 10:52:56;;;;;;;;;;;;;;;2.74;100.00;98174.33;1625204;86;20146;-73
2022/01/06 10:55:29;;;;;;;;;;;;;;;2.52;100.00;98172.02;1642720;86;20188;-70
2022/01/06 10:58:01;;;;;;;;;;;;;;;2.29;100.00;98169.72;1642445;85;20102;-71
2022/01/06 11:00:36;;;;;;;;;;;;;;;2.50;100.00;98170.13;1642835;87;20098;-71
2022/01/06 11:03:19;;;;;;;;;;;;;;;2.54;100.00;98180.54;1642423;86;21167;-72
2022/01/06 11:05:50;;;;;;;;;;;;;;;2.51;100.00;98179.17;1641936;87;20228;-71
2022/01/06 11:08:18;;;;;;;;;;;;;;;2.26;100.00;98169.40;1638024;86;20115;-70
2022/01/06 11:10:49;;;;;;;;;;;;;;;2.14;100.00;98172.06;1638012;87;20166;-73
2022/01/06 11:13:17;;;;;;;;;;;;;;;2.20;100.00;98175.61;1635602;87;20250;-72
2022/01/06 11:15:44;;;;;;;;;;;;;;;2.11;100.00;98177.30;1633577;87;22149;-71
2022/01/06 11:18:21;;;;;;;;;;;;;;;2.13;100.00;98177.05;1633960;87;20151;-67
2022/01/06 11:20:47;;;;;;;;;;;;;;;2.09;100.00;98176.72;1634439;87;20180;-67
2022/01/06 11:23:23;;;;;;;;;;;;;;;2.03;100.00;98180.81;1637200;88;20128;-70
2022/01/06 11:26:11;;;;;;;;;;;;;;;2.01;100.00;98175.77;1646436;86;20117;-72
2022/01/06 11:28:43;;;;;;;;;;;;;;;1.99;100.00;98186.30;1617665;87;20855;-72
2022/01/06 11:31:17;;;;;;;;;;;;;;;1.90;100.00;98174.72;1627959;85;20108;-72
2022/01/06 11:33:47;;;;;;;;;;;;;;;1.91;100.00;98179.00;1629859;87;20214;-70
2022/01/06 11:36:20;;;;;;;;;;;;;;;1.90;100.00;98178.69;1633021;87;20467;-71
2022/01/06 11:38:49;;;;;;;;;;;;;;;1.89;100.00;98180.27;1634838;87;20191;-70
2022/01/06 11:41:18;;;;;;;;;;;;;;;1.91;100.00;98179.48;1629643;87;21911;-71
2022/01/06 11:43:45;;;;;;;;;;;;;;;1.88;100.00;98181.28;1633662;87;20172;-70
2022/01/06 11:46:18;;;;;;;;;;;;;;;1.86;100.00;98180.20;1634950;85;20104;-71
2022/01/06 11:48:53;;;;;;;;;;;;;;;1.86;100.00;98188.14;1630624;87;20529;-72
2022/01/06 11:51:28;;;;;;;;;;;;;;;1.91;100.00;98196.20;1633023;86;20208;-69
2022/01/06 11:53:55;;;;;;;;;;;;;;;1.90;100.00;98195.89;1636639;87;21160;-72
2022/01/06 11:56:23;;;;;;;;;;;;;;;1.94;100.00;98197.58;1634394;87;20153;-69
2022/01/06 11:59:00;;;;;;;;;;;;;;;1.97;100.00;98198.95;1614419;87;20154;-70
2022/01/06 12:01:47;;;;;;;;;;;;;;;1.98;100.00;98197.91;1632387;86;20210;-75
2022/01/06 12:04:15;;;;;;;;;;;;;;;1.97;100.00;98201.59;1619985;87;20610;-73
2022/01/06 12:06:43;;;;;;;;;;;;;;;1.91;100.00;98204.14;1632524;85;20357;-71
2022/01/06 12:09:21;;;;;;;;;;;;;;;1.96;100.00;98206.09;1639084;85;20156;-72
2022/01/06 12:12:05;;;;;;;;;;;;;;;1.94;100.00;98208.16;1636681;87;20486;-73
2022/01/06 12:14:32;;;;;;;;;;;;;;;1.96;100.00;98203.45;1637801;86;20208;-71
2022/01/06 12:17:07;;;;;;;;;;;;;;;1.89;100.00;98200.11;1636457;86;20176;-71
2022/01/06 12:19:34;;;;;;;;;;;;;;;1.87;100.00;98206.94;1632396;87;21134;-71
2022/01/06 12:22:00;;;;;;;;;;;;;;;1.89;100.00;98208.84;1629872;87;20213;-72
2022/01/06 12:24:26;;;;;;;;;;;;;;;1.88;100.00;98211.19;1633389;86;20446;-72
2022/01/06 12:26:54;;;;;;;;;;;;;;;1.90;100.00;98204.35;1638906;87;20833;-73
2022/01/06 12:29:24;;;;;;;;;;;;;;;1.90;100.00;98209.13;1638923;87;20590;-72
2022/01/06 12:31:50;;;;;;;;;;;;;;;1.85;100.00;98216.14;1639483;86;21100;-71
2022/01/06 12:34:17;;;;;;;;;;;;;;;1.90;100.00;98221.03;1639855;85;20185;-72
2022/01/06 12:36:45;;;;;;;;;;;;;;;1.87;100.00;98210.11;1637786;85;20229;-71
2022/01/06 12:39:17;;;;;;;;;;;;;;;1.87;100.00;98214.08;1643188;87;20150;-72
2022/01/06 12:41:44;;;;;;;;;;;;;;;1.83;100.00;98209.75;1635766;86;20180;-70
2022/01/06 12:44:13;;;;;;;;;;;;;;;1.90;100.00;98215.73;1650697;85;21134;-70
2022/01/06 12:46:43;;;;;;;;;;;;;;;1.89;100.00;98211.49;1656694;85;20235;-71
2022/01/06 12:49:10;;;;;;;;;;;;;;;1.92;100.00;98222.13;1636990;85;20453;-71
2022/01/06 12:51:39;;;;;;;;;;;;;;;1.91;100.00;98213.89;1633101;85;20224;-71
2022/01/06 12:54:13;;;;;;;;;;;;;;;1.91;100.00;98217.86;1654264;85;20208;-70
2022/01/06 12:56:38;;;;;;;;;;;;;;;1.93;100.00;98224.53;1670825;85;21123;-72
2022/01/06 12:59:15;;;;;;;;;;;;;;;1.91;100.00;98222.66;1672646;85;20204;-74